Time;durP1;ratioP1;P1;durP2;ratioP2;P2;SDS_P1;SDS_P2;PMS_P1;PMS_P2;Temp;Humidity;BMP_temperature;BMP_pressure;BME280_temperature;BME280_humidity;BME280_pressure;Samples;Min_cycle;Max_cycle;Signal;HPM_P1;HPM_P2
2020/12/31 00:00:05;;;;;;;19.03;12.23;;;2.80;99.90;;;;;;5024880;28;20194;-84
2020/12/31 00:02:30;;;;;;;19.70;12.70;;;2.70;99.90;;;;;;5021403;28;20192;-85
2020/12/31 00:04:56;;;;;;;18.67;11.77;;;2.80;99.90;;;;;;5021792;28;20185;-85
2020/12/31 00:07:21;;;;;;;17.50;10.97;;;2.80;99.90;;;;;;5021136;28;20257;-85
2020/12/31 00:09:47;;;;;;;20.23;12.47;;;2.90;99.90;;;;;;5020855;28;20218;-87
2020/12/31 00:12:12;;;;;;;18.13;11.70;;;2.90;99.90;;;;;;5021155;28;20178;-85
2020/12/31 00:14:38;;;;;;;16.40;11.83;;;2.90;99.90;;;;;;5020026;28;20183;-86
2020/12/31 00:17:04;;;;;;;16.27;11.53;;;3.00;99.90;;;;;;5018830;28;20234;-86
2020/12/31 00:19:29;;;;;;;17.77;11.40;;;3.00;99.90;;;;;;5019344;28;20329;-87
2020/12/31 00:21:55;;;;;;;17.77;11.70;;;3.00;99.90;;;;;;5034047;28;20186;-84
2020/12/31 00:24:21;;;;;;;16.40;11.30;;;3.10;99.90;;;;;;5019782;28;20264;-86
2020/12/31 00:26:47;;;;;;;20.10;11.47;;;3.20;99.90;;;;;;5035640;28;20175;-86
2020/12/31 00:29:12;;;;;;;19.13;12.00;;;3.20;99.90;;;;;;5019490;28;20191;-86
2020/12/31 00:31:38;;;;;;;18.27;11.80;;;3.30;99.90;;;;;;5019527;28;20183;-86
2020/12/31 00:34:04;;;;;;;21.50;12.10;;;3.30;99.90;;;;;;5035478;28;20208;-85
2020/12/31 00:36:29;;;;;;;16.10;11.00;;;3.40;99.90;;;;;;5018438;28;20646;-86
2020/12/31 00:38:55;;;;;;;16.77;10.23;;;3.40;99.90;;;;;;5017592;28;20205;-85
2020/12/31 00:41:21;;;;;;;16.10;10.23;;;3.50;99.90;;;;;;5019676;28;20178;-86
2020/12/31 00:43:47;;;;;;;20.23;9.90;;;3.50;99.90;;;;;;5019963;28;20285;-85
2020/12/31 00:46:12;;;;;;;15.43;10.00;;;3.50;99.90;;;;;;5019750;28;20186;-87
2020/12/31 00:48:38;;;;;;;16.00;9.77;;;3.50;99.90;;;;;;5020088;28;20188;-87
2020/12/31 00:51:03;;;;;;;13.87;9.40;;;3.60;99.90;;;;;;5018529;28;20334;-85
2020/12/31 00:53:29;;;;;;;15.13;9.77;;;3.60;99.90;;;;;;5018505;28;20212;-87
2020/12/31 00:55:54;;;;;;;12.90;9.57;;;3.60;99.90;;;;;;5017527;28;20177;-86
2020/12/31 00:58:20;;;;;;;13.67;8.87;;;3.60;99.90;;;;;;5020939;28;20642;-87
2020/12/31 01:00:45;;;;;;;15.00;9.33;;;3.60;99.90;;;;;;5022116;28;20191;-85
2020/12/31 01:03:11;;;;;;;17.97;9.37;;;3.60;99.90;;;;;;5019839;28;20245;-84
2020/12/31 01:05:36;;;;;;;13.60;9.07;;;3.60;99.90;;;;;;5021199;28;20194;-85
2020/12/31 01:08:02;;;;;;;14.63;9.10;;;3.80;99.90;;;;;;5024370;28;20183;-85
2020/12/31 01:10:28;;;;;;;13.03;8.20;;;3.70;99.90;;;;;;5049190;23;20227;-77
2020/12/31 01:12:53;;;;;;;13.87;8.17;;;3.90;99.90;;;;;;5030703;28;20700;-77
2020/12/31 01:15:19;;;;;;;9.77;6.97;;;3.90;99.90;;;;;;5047145;28;20218;-77
2020/12/31 01:17:44;;;;;;;10.20;7.13;;;3.90;99.90;;;;;;5031208;28;20207;-77
2020/12/31 01:20:10;;;;;;;12.17;7.03;;;3.90;99.90;;;;;;5030806;28;20477;-77
2020/12/31 01:22:36;;;;;;;11.87;8.33;;;3.90;99.90;;;;;;5047587;28;20190;-77
2020/12/31 01:25:02;;;;;;;12.07;7.50;;;3.90;99.90;;;;;;5030891;28;20177;-77
2020/12/31 01:27:27;;;;;;;12.50;7.77;;;3.90;99.90;;;;;;5047326;28;20179;-77
2020/12/31 01:29:53;;;;;;;10.80;8.07;;;3.90;99.90;;;;;;5030809;28;20261;-77
2020/12/31 01:32:24;;;;;;;12.17;7.57;;;3.90;99.90;;;;;;5030814;28;20191;-77
2020/12/31 01:34:49;;;;;;;10.93;7.33;;;3.90;99.90;;;;;;5031065;28;20189;-77
2020/12/31 01:37:18;;;;;;;11.10;7.83;;;3.90;99.90;;;;;;5030592;28;20167;-77
2020/12/31 01:39:44;;;;;;;9.60;7.53;;;3.90;99.90;;;;;;5031244;28;20203;-77
2020/12/31 01:42:10;;;;;;;11.33;7.67;;;3.90;99.90;;;;;;5031114;28;20595;-78
2020/12/31 01:44:35;;;;;;;10.67;7.47;;;4.00;99.90;;;;;;5030697;28;20229;-77
2020/12/31 01:47:01;;;;;;;12.63;7.80;;;4.00;99.90;;;;;;5048122;28;20195;-77
2020/12/31 01:49:28;;;;;;;11.10;8.00;;;4.00;99.90;;;;;;5031916;28;20195;-77
2020/12/31 01:51:54;;;;;;;10.90;7.43;;;3.90;99.90;;;;;;5030946;28;20545;-78
2020/12/31 01:54:20;;;;;;;11.83;7.50;;;3.80;99.90;;;;;;5048734;28;20201;-77
2020/12/31 01:56:45;;;;;;;10.70;7.10;;;3.90;99.90;;;;;;5030983;28;20193;-78
2020/12/31 01:59:11;;;;;;;13.13;7.80;;;3.80;99.90;;;;;;5047713;28;20163;-77
2020/12/31 02:01:36;;;;;;;12.50;8.07;;;3.80;99.90;;;;;;5047623;28;20298;-77
2020/12/31 02:04:02;;;;;;;11.27;7.77;;;3.80;99.90;;;;;;5030678;28;20187;-77
2020/12/31 02:06:28;;;;;;;13.77;7.63;;;3.80;99.90;;;;;;5030242;28;20269;-77
2020/12/31 02:08:54;;;;;;;10.87;7.17;;;3.80;99.90;;;;;;5030489;28;20680;-77
2020/12/31 02:11:20;;;;;;;9.87;7.00;;;3.90;99.90;;;;;;5047033;28;20199;-77
2020/12/31 02:13:46;;;;;;;8.90;7.00;;;3.90;99.90;;;;;;5030477;28;20210;-77
2020/12/31 02:16:12;;;;;;;12.60;7.77;;;3.90;99.90;;;;;;5030378;28;20182;-78
2020/12/31 02:18:55;;;;;;;10.27;6.23;;;3.90;99.90;;;;;;5047271;28;20179;-78
2020/12/31 02:21:25;;;;;;;10.87;7.67;;;3.90;99.90;;;;;;5046706;28;20171;-77
2020/12/31 02:23:51;;;;;;;9.60;7.27;;;3.90;99.90;;;;;;5046741;28;20181;-77
2020/12/31 02:26:16;;;;;;;9.17;7.27;;;3.90;99.90;;;;;;5032970;28;20178;-77
2020/12/31 02:28:42;;;;;;;12.47;7.33;;;3.90;99.90;;;;;;5034180;28;20178;-77
2020/12/31 02:31:07;;;;;;;10.73;7.57;;;3.80;99.90;;;;;;5033770;28;20237;-77
2020/12/31 02:33:33;;;;;;;9.93;7.67;;;3.90;99.90;;;;;;5050417;28;20206;-77
2020/12/31 02:35:58;;;;;;;13.63;7.60;;;4.00;99.90;;;;;;5050349;28;20202;-77
2020/12/31 02:38:24;;;;;;;10.73;7.33;;;3.90;99.90;;;;;;5049949;28;20635;-77
2020/12/31 02:40:49;;;;;;;10.77;7.73;;;3.80;99.90;;;;;;5050104;28;20194;-77
2020/12/31 02:43:15;;;;;;;9.47;7.03;;;3.90;99.90;;;;;;5033635;28;20232;-75
2020/12/31 02:45:40;;;;;;;12.47;8.13;;;3.80;99.90;;;;;;5050449;28;20186;-77
2020/12/31 02:48:06;;;;;;;9.07;7.40;;;3.80;99.90;;;;;;5033472;28;20177;-77
2020/12/31 02:50:32;;;;;;;10.57;7.53;;;3.80;99.90;;;;;;5049924;28;20193;-77
2020/12/31 02:52:57;;;;;;;11.20;7.87;;;3.80;99.90;;;;;;5050117;28;20202;-77
2020/12/31 02:55:23;;;;;;;11.43;7.57;;;3.70;99.90;;;;;;5050183;28;20262;-77
2020/12/31 02:57:48;;;;;;;8.63;7.37;;;3.80;99.90;;;;;;5050032;28;20266;-76
2020/12/31 03:00:14;;;;;;;10.17;7.47;;;3.80;99.90;;;;;;5034395;28;20249;-76
2020/12/31 03:02:39;;;;;;;11.60;7.80;;;3.80;99.90;;;;;;5049917;28;20176;-76
2020/12/31 03:05:05;;;;;;;11.67;7.93;;;3.70;99.90;;;;;;5050189;28;20188;-77
2020/12/31 03:07:30;;;;;;;11.73;8.37;;;3.60;99.90;;;;;;5049783;28;20182;-76
2020/12/31 03:09:56;;;;;;;10.40;7.23;;;3.60;99.90;;;;;;5032683;28;20214;-76
2020/12/31 03:12:21;;;;;;;11.33;7.40;;;3.70;99.90;;;;;;5049709;28;20175;-77
2020/12/31 03:14:47;;;;;;;10.33;7.57;;;3.60;99.90;;;;;;5033248;28;20179;-77
2020/12/31 03:17:12;;;;;;;10.43;7.57;;;3.60;99.90;;;;;;5049785;28;20178;-76
2020/12/31 03:19:38;;;;;;;11.20;8.07;;;3.60;99.90;;;;;;5049308;28;20195;-77
2020/12/31 03:22:04;;;;;;;10.97;8.33;;;3.50;99.90;;;;;;5033145;28;20183;-77
2020/12/31 03:24:29;;;;;;;14.57;8.90;;;3.50;99.90;;;;;;5033148;28;20183;-76
2020/12/31 03:26:55;;;;;;;12.17;7.93;;;3.50;99.90;;;;;;5049710;28;20490;-77
2020/12/31 03:29:20;;;;;;;12.23;7.60;;;3.50;99.90;;;;;;5049408;28;20199;-76
2020/12/31 03:31:46;;;;;;;10.90;7.87;;;3.50;99.90;;;;;;5032770;28;20197;-76
2020/12/31 03:34:11;;;;;;;14.00;8.27;;;3.50;99.90;;;;;;5031970;28;20297;-76
2020/12/31 03:36:37;;;;;;;10.70;7.73;;;3.50;99.90;;;;;;5031589;28;20270;-77
2020/12/31 03:39:02;;;;;;;9.40;7.50;;;3.60;99.90;;;;;;5032507;28;20273;-77
2020/12/31 03:41:28;;;;;;;12.90;8.10;;;3.60;99.90;;;;;;5049347;28;20203;-76
2020/12/31 03:43:53;;;;;;;11.00;7.80;;;3.60;99.90;;;;;;5032737;28;20187;-77
2020/12/31 03:46:19;;;;;;;11.47;8.20;;;3.60;99.90;;;;;;5032210;28;20626;-76
2020/12/31 03:48:44;;;;;;;11.63;8.37;;;3.60;99.90;;;;;;5049124;28;20574;-76
2020/12/31 03:51:10;;;;;;;10.63;8.17;;;3.60;99.90;;;;;;5032407;28;20681;-76
2020/12/31 03:53:35;;;;;;;12.53;8.00;;;3.60;99.90;;;;;;5032366;28;20214;-77
2020/12/31 03:56:01;;;;;;;12.23;8.90;;;3.60;99.90;;;;;;5049167;28;20185;-76
2020/12/31 03:58:26;;;;;;;11.30;8.43;;;3.60;99.90;;;;;;5032469;28;20181;-76
2020/12/31 04:00:52;;;;;;;12.33;8.10;;;3.60;99.90;;;;;;5031979;28;20209;-77
2020/12/31 04:03:18;;;;;;;12.37;8.40;;;3.60;99.90;;;;;;5049064;28;20233;-77
2020/12/31 04:05:43;;;;;;;11.20;8.00;;;3.70;99.90;;;;;;5032259;28;20190;-77
2020/12/31 04:08:09;;;;;;;9.27;7.10;;;3.60;99.90;;;;;;5048813;28;20183;-76
2020/12/31 04:10:34;;;;;;;11.87;7.87;;;3.70;99.90;;;;;;5032174;28;20218;-76
2020/12/31 04:13:00;;;;;;;11.13;8.57;;;3.70;99.90;;;;;;5048656;28;20257;-76
2020/12/31 04:15:25;;;;;;;12.37;7.47;;;3.60;99.90;;;;;;5049016;28;20182;-77
2020/12/31 04:17:51;;;;;;;10.53;7.63;;;3.60;99.90;;;;;;5032441;28;20186;-77
2020/12/31 04:20:16;;;;;;;13.13;8.10;;;3.70;99.90;;;;;;5031804;28;20195;-76
2020/12/31 04:22:42;;;;;;;11.43;8.17;;;3.70;99.90;;;;;;5031955;28;20220;-77
2020/12/31 04:25:07;;;;;;;12.43;8.30;;;3.70;99.90;;;;;;5048653;28;20208;-77
2020/12/31 04:27:33;;;;;;;11.73;7.90;;;3.70;99.90;;;;;;5048190;28;20179;-77
2020/12/31 04:29:58;;;;;;;10.13;8.13;;;3.70;99.90;;;;;;5048310;28;20202;-76
2020/12/31 04:32:24;;;;;;;9.50;7.40;;;3.70;99.90;;;;;;5048150;28;20258;-77
2020/12/31 04:34:49;;;;;;;11.67;7.50;;;3.80;99.90;;;;;;5048051;28;20313;-76
2020/12/31 04:37:15;;;;;;;10.57;7.97;;;3.80;99.90;;;;;;5048121;28;20249;-77
2020/12/31 04:39:40;;;;;;;12.37;8.20;;;3.80;99.90;;;;;;5031386;28;20691;-77
2020/12/31 04:42:06;;;;;;;10.23;7.70;;;3.90;99.90;;;;;;5048115;28;20174;-76
2020/12/31 04:44:31;;;;;;;10.70;7.63;;;3.90;99.90;;;;;;5031337;28;20186;-77
2020/12/31 04:46:58;;;;;;;11.33;7.60;;;3.90;99.90;;;;;;5047484;28;20710;-77
2020/12/31 04:49:28;;;;;;;9.30;7.00;;;3.90;99.90;;;;;;5047768;28;20195;-77
2020/12/31 04:51:54;;;;;;;10.47;7.70;;;4.00;99.90;;;;;;5047859;28;20225;-76
2020/12/31 04:54:20;;;;;;;11.03;7.37;;;4.00;99.90;;;;;;5031184;28;20214;-76
2020/12/31 04:56:46;;;;;;;9.27;7.23;;;4.00;99.90;;;;;;5047946;28;20186;-77
2020/12/31 04:59:11;;;;;;;9.83;7.07;;;4.00;99.90;;;;;;5047690;28;20461;-76
2020/12/31 05:01:40;;;;;;;7.73;5.57;;;4.00;99.90;;;;;;5047558;28;20175;-77
2020/12/31 05:04:06;;;;;;;9.30;6.60;;;4.00;99.90;;;;;;5030954;28;20210;-77
2020/12/31 05:06:34;;;;;;;8.33;6.10;;;3.90;99.90;;;;;;5047716;28;20340;-76
2020/12/31 05:09:13;;;;;;;7.83;6.63;;;3.90;99.90;;;;;;5047285;28;20178;-77
2020/12/31 05:11:43;;;;;;;8.13;6.30;;;3.90;99.90;;;;;;5046678;28;20174;-76
2020/12/31 05:14:09;;;;;;;7.30;5.83;;;3.80;99.90;;;;;;5030495;28;20214;-76
2020/12/31 05:16:34;;;;;;;8.77;5.97;;;3.80;99.90;;;;;;5047546;28;20180;-76
2020/12/31 05:19:00;;;;;;;9.00;5.63;;;3.80;99.90;;;;;;5047388;28;20241;-77
2020/12/31 05:21:25;;;;;;;8.23;6.67;;;3.80;99.90;;;;;;5030735;28;20175;-76
2020/12/31 05:23:51;;;;;;;9.93;6.60;;;3.80;99.90;;;;;;5030713;28;20214;-76
2020/12/31 05:26:29;;;;;;;9.33;6.63;;;3.80;99.90;;;;;;5047262;28;20188;-76
2020/12/31 05:28:55;;;;;;;8.93;6.20;;;3.80;99.90;;;;;;5030471;28;20768;-76
2020/12/31 05:31:21;;;;;;;9.07;6.40;;;3.90;99.90;;;;;;5030921;28;20285;-76
2020/12/31 05:33:46;;;;;;;10.97;7.40;;;3.80;99.90;;;;;;5030266;28;20213;-77
2020/12/31 05:36:21;;;;;;;8.90;7.10;;;3.80;99.90;;;;;;5030668;28;20550;-77
2020/12/31 05:38:56;;;;;;;11.60;6.37;;;3.80;99.90;;;;;;5031891;28;20249;-76
2020/12/31 05:41:25;;;;;;;10.40;6.73;;;3.80;99.90;;;;;;5031995;28;20166;-77
2020/12/31 05:43:57;;;;;;;9.13;6.83;;;3.80;99.90;;;;;;5030608;28;20654;-76
2020/12/31 05:46:23;;;;;;;9.23;7.23;;;3.70;99.90;;;;;;5046629;28;20202;-76
2020/12/31 05:49:01;;;;;;;12.17;7.60;;;3.70;99.90;;;;;;5047311;28;20713;-77
2020/12/31 05:51:30;;;;;;;10.93;7.70;;;3.70;99.90;;;;;;5046887;28;20214;-77
2020/12/31 05:54:09;;;;;;;10.00;7.10;;;3.70;99.90;;;;;;5047331;28;20693;-77
2020/12/31 05:56:35;;;;;;;8.50;6.83;;;3.80;99.90;;;;;;5046320;28;20704;-77
2020/12/31 05:59:21;;;;;;;9.23;7.00;;;3.70;99.90;;;;;;5047041;28;20167;-76
2020/12/31 06:02:00;;;;;;;9.67;7.13;;;3.80;99.90;;;;;;5034513;28;20396;-77
2020/12/31 06:04:29;;;;;;;11.80;7.23;;;3.80;99.90;;;;;;5051079;28;20175;-76
2020/12/31 06:06:58;;;;;;;10.17;7.00;;;3.70;99.90;;;;;;5034264;28;20178;-76
2020/12/31 06:09:31;;;;;;;9.03;7.00;;;3.70;99.90;;;;;;5033735;28;20214;-77
2020/12/31 06:11:58;;;;;;;10.80;7.10;;;3.80;99.90;;;;;;5051250;28;20186;-77
2020/12/31 06:14:26;;;;;;;10.27;7.40;;;3.80;99.90;;;;;;5050376;28;20199;-76
2020/12/31 06:16:57;;;;;;;10.23;7.20;;;3.70;99.90;;;;;;5033851;28;20178;-77
2020/12/31 06:19:32;;;;;;;8.23;6.77;;;3.60;99.90;;;;;;5033985;28;20195;-77
2020/12/31 06:22:05;;;;;;;10.10;6.87;;;3.70;99.90;;;;;;5050596;28;20577;-76
2020/12/31 06:24:33;;;;;;;11.07;7.53;;;3.60;99.90;;;;;;5050489;28;20171;-76
2020/12/31 06:27:08;;;;;;;9.10;7.27;;;3.60;99.90;;;;;;5050308;28;20178;-77
2020/12/31 06:29:41;;;;;;;9.73;6.93;;;3.60;99.90;;;;;;5032975;28;20619;-77
2020/12/31 06:32:17;;;;;;;9.33;7.77;;;3.50;99.90;;;;;;5033792;28;20198;-77
2020/12/31 06:34:42;;;;;;;10.53;7.53;;;3.50;99.90;;;;;;5033868;28;20205;-76
2020/12/31 06:37:09;;;;;;;10.33;7.40;;;3.50;99.90;;;;;;5050401;28;20624;-76
2020/12/31 06:39:35;;;;;;;9.60;6.90;;;3.50;99.90;;;;;;5050326;28;20195;-77
2020/12/31 06:42:01;;;;;;;11.27;8.10;;;3.60;99.90;;;;;;5034308;28;20182;-77
2020/12/31 06:44:32;;;;;;;10.93;7.73;;;3.50;99.90;;;;;;5050701;28;20182;-77
2020/12/31 06:46:58;;;;;;;9.53;7.40;;;3.50;99.90;;;;;;5050475;28;20180;-77
2020/12/31 06:49:51;;;;;;;10.23;7.53;;;3.60;99.90;;;;;;5050041;28;20194;-76
2020/12/31 06:52:20;;;;;;;11.30;7.90;;;3.50;99.90;;;;;;5050698;28;20289;-76
2020/12/31 06:54:46;;;;;;;9.90;7.47;;;3.50;99.90;;;;;;5033650;28;20197;-77
2020/12/31 06:57:12;;;;;;;10.00;7.40;;;3.50;99.90;;;;;;5050209;28;20170;-76
2020/12/31 06:59:42;;;;;;;10.90;7.77;;;3.40;99.90;;;;;;5050008;28;20568;-76
2020/12/31 07:02:11;;;;;;;12.07;8.50;;;3.40;99.90;;;;;;5032827;28;20175;-77
2020/12/31 07:04:39;;;;;;;11.53;8.30;;;3.40;99.90;;;;;;5033688;28;20190;-76
2020/12/31 07:07:19;;;;;;;10.93;8.43;;;3.40;99.90;;;;;;5049817;28;20168;-77
2020/12/31 07:09:58;;;;;;;11.37;8.67;;;3.40;99.90;;;;;;5072148;22;20296;-88
2020/12/31 07:12:41;;;;;;;11.20;8.37;;;3.30;99.90;;;;;;5016392;28;20183;-88
2020/12/31 07:15:10;;;;;;;12.30;8.53;;;3.20;99.90;;;;;;5017502;28;20218;-89
2020/12/31 07:17:46;;;;;;;11.30;8.10;;;3.30;99.90;;;;;;5016685;28;20175;-89
2020/12/31 07:20:15;;;;;;;10.60;8.17;;;3.40;99.90;;;;;;5017827;28;20206;-87
2020/12/31 07:22:42;;;;;;;9.40;7.43;;;3.40;99.90;;;;;;5018685;28;20198;-88
2020/12/31 07:25:14;;;;;;;12.47;9.17;;;3.30;99.90;;;;;;5017987;28;20185;-87
2020/12/31 07:27:41;;;;;;;10.13;7.90;;;3.30;99.90;;;;;;5017544;28;20175;-88
2020/12/31 07:30:07;;;;;;;12.73;8.70;;;3.30;99.90;;;;;;5017636;28;20193;-87
2020/12/31 07:32:51;;;;;;;12.67;9.23;;;3.20;99.90;;;;;;5033621;28;20665;-89
2020/12/31 07:35:36;;;;;;;11.20;8.93;;;3.20;99.90;;;;;;5033376;28;20178;-89
2020/12/31 07:38:07;;;;;;;12.63;9.30;;;3.20;99.90;;;;;;5016928;28;20190;-89
2020/12/31 07:40:40;;;;;;;12.33;8.97;;;3.30;99.90;;;;;;5017248;28;20253;-88
2020/12/31 07:43:11;;;;;;;11.77;8.50;;;3.30;99.90;;;;;;5018135;28;20183;-89
2020/12/31 07:45:37;;;;;;;10.20;8.40;;;3.20;99.90;;;;;;5017641;28;20232;-89
2020/12/31 07:48:03;;;;;;;10.83;8.13;;;3.20;99.90;;;;;;5016643;28;20191;-89
2020/12/31 07:50:28;;;;;;;11.20;8.50;;;3.30;99.90;;;;;;5017662;28;20699;-89
2020/12/31 07:52:54;;;;;;;12.23;9.40;;;3.30;99.90;;;;;;5016862;28;20743;-89
2020/12/31 07:55:20;;;;;;;11.43;8.23;;;3.30;99.90;;;;;;5016430;28;20186;-89
2020/12/31 07:57:45;;;;;;;12.43;9.67;;;3.20;99.90;;;;;;5016134;28;20281;-90
2020/12/31 08:00:15;;;;;;;16.07;11.83;;;3.30;99.90;;;;;;5016262;28;20195;-88
2020/12/31 08:03:03;;;;;;;12.30;9.13;;;3.30;99.90;;;;;;5016408;28;20638;-89
2020/12/31 08:05:28;;;;;;;10.90;8.77;;;3.30;99.90;;;;;;5032470;28;20220;-89
2020/12/31 08:07:55;;;;;;;49.13;29.87;;;3.50;99.90;;;;;;5016026;28;20179;-89
2020/12/31 08:10:20;;;;;;;15.40;10.90;;;3.30;99.90;;;;;;5015892;28;20218;-88
2020/12/31 08:12:59;;;;;;;30.23;20.80;;;3.30;99.90;;;;;;5015449;28;20233;-87
2020/12/31 08:15:24;;;;;;;15.00;10.53;;;3.30;99.90;;;;;;5015705;28;20171;-87
2020/12/31 08:17:54;;;;;;;12.57;8.93;;;3.20;99.90;;;;;;5015003;28;20182;-87
2020/12/31 08:20:22;;;;;;;12.57;9.17;;;3.30;99.90;;;;;;5015174;28;20657;-88
2020/12/31 08:22:55;;;;;;;12.07;8.60;;;3.30;99.90;;;;;;5015357;28;20661;-87
2020/12/31 08:25:25;;;;;;;17.30;12.40;;;3.40;99.90;;;;;;5015513;28;20175;-88
2020/12/31 08:27:52;;;;;;;11.63;8.33;;;3.30;99.90;;;;;;5014787;28;20178;-87
2020/12/31 08:30:19;;;;;;;11.03;8.40;;;3.30;99.90;;;;;;5014557;28;20252;-88
2020/12/31 08:32:51;;;;;;;15.63;11.67;;;3.40;99.90;;;;;;5015012;28;20558;-88
2020/12/31 08:35:22;;;;;;;11.07;8.73;;;3.40;99.90;;;;;;5031586;28;20629;-88
2020/12/31 08:37:57;;;;;;;11.73;8.70;;;3.40;99.90;;;;;;4998704;28;20206;-87
2020/12/31 08:40:22;;;;;;;47.57;31.33;;;3.20;99.90;;;;;;5016245;28;20652;-88
2020/12/31 08:42:52;;;;;;;18.47;13.27;;;3.20;99.90;;;;;;5015073;28;20209;-88
2020/12/31 08:45:30;;;;;;;12.40;8.97;;;3.20;99.90;;;;;;5015566;28;20241;-89
2020/12/31 08:48:22;;;;;;;10.80;7.80;;;3.40;99.90;;;;;;5016703;28;20193;-88
2020/12/31 08:51:13;;;;;;;12.67;8.77;;;3.40;99.90;;;;;;5016379;28;20198;-88
2020/12/31 08:53:49;;;;;;;51.93;37.20;;;3.40;99.90;;;;;;5016026;28;20823;-89
2020/12/31 08:56:16;;;;;;;35.80;27.13;;;3.30;99.90;;;;;;5015246;28;20214;-87
2020/12/31 08:58:41;;;;;;;17.20;13.53;;;3.30;99.90;;;;;;5014534;28;20619;-88
2020/12/31 09:01:07;;;;;;;40.77;30.17;;;3.40;99.90;;;;;;5014489;28;20209;-86
2020/12/31 09:03:32;;;;;;;114.50;77.83;;;3.40;99.90;;;;;;5014490;28;20638;-88
2020/12/31 09:05:59;;;;;;;28.87;20.80;;;3.40;99.90;;;;;;5013786;28;20189;-86
2020/12/31 09:08:25;;;;;;;21.67;15.07;;;3.40;99.90;;;;;;5014617;28;20187;-86
2020/12/31 09:11:06;;;;;;;12.13;8.63;;;3.40;99.90;;;;;;4994758;28;587712;-88
2020/12/31 09:13:39;;;;;;;12.03;9.03;;;3.50;99.90;;;;;;5015085;28;20590;-88
2020/12/31 09:16:11;;;;;;;8.70;7.27;;;3.50;99.90;;;;;;5015234;28;20167;-88
2020/12/31 09:18:37;;;;;;;14.73;10.17;;;3.50;99.90;;;;;;5031826;28;20197;-88
2020/12/31 09:21:02;;;;;;;9.90;7.50;;;3.50;99.90;;;;;;5014668;28;20595;-88
2020/12/31 09:23:28;;;;;;;13.80;10.07;;;3.60;99.90;;;;;;5018279;28;20212;-87
2020/12/31 09:25:53;;;;;;;6.53;5.20;;;3.60;99.90;;;;;;5015419;28;20190;-87
2020/12/31 09:28:19;;;;;;;10.67;8.03;;;3.60;99.90;;;;;;5015464;28;20181;-86
2020/12/31 09:30:45;;;;;;;15.57;12.33;;;3.50;99.90;;;;;;5015555;28;20348;-86
2020/12/31 09:33:16;;;;;;;6.53;5.40;;;3.40;99.90;;;;;;5015521;28;20222;-86
2020/12/31 09:35:42;;;;;;;5.00;3.73;;;3.50;99.90;;;;;;5018096;28;20272;-85
2020/12/31 09:38:07;;;;;;;18.30;14.00;;;3.50;99.90;;;;;;5019719;28;20182;-85
2020/12/31 09:40:33;;;;;;;7.40;5.40;;;3.50;99.90;;;;;;5019214;28;20194;-85
2020/12/31 09:42:59;;;;;;;40.73;28.83;;;3.50;99.90;;;;;;5019025;28;20237;-85
2020/12/31 09:45:25;;;;;;;6.17;4.43;;;3.50;99.90;;;;;;5019123;28;20763;-88
2020/12/31 09:47:58;;;;;;;8.43;6.60;;;3.50;99.90;;;;;;5019287;28;20183;-87
2020/12/31 09:50:23;;;;;;;4.37;3.53;;;3.60;99.90;;;;;;5018735;28;20206;-85
2020/12/31 09:52:49;;;;;;;8.33;5.87;;;3.70;99.90;;;;;;5019525;28;20211;-87
2020/12/31 09:55:14;;;;;;;3.27;2.97;;;3.70;99.90;;;;;;5019368;28;20179;-86
2020/12/31 09:57:40;;;;;;;9.20;6.77;;;3.70;99.90;;;;;;5018320;28;20229;-85
2020/12/31 10:00:05;;;;;;;97.17;52.10;;;3.70;99.90;;;;;;5018111;28;20202;-86
2020/12/31 10:02:31;;;;;;;29.60;16.40;;;3.70;99.90;;;;;;5018228;28;20187;-87
2020/12/31 10:04:57;;;;;;;4.17;3.37;;;3.70;99.90;;;;;;5018478;28;20175;-87
2020/12/31 10:07:23;;;;;;;24.57;13.57;;;3.80;99.90;;;;;;5018187;28;20175;-87
2020/12/31 10:09:48;;;;;;;13.13;7.80;;;3.80;99.90;;;;;;5017921;28;20206;-87
2020/12/31 10:12:14;;;;;;;4.90;3.80;;;3.70;99.90;;;;;;5018130;28;20175;-88
2020/12/31 10:14:40;;;;;;;5.10;4.33;;;3.70;99.90;;;;;;5018264;28;20206;-87
2020/12/31 10:17:06;;;;;;;4.23;3.37;;;3.80;99.90;;;;;;5018165;28;20189;-87
2020/12/31 10:19:32;;;;;;;4.30;3.40;;;3.70;99.90;;;;;;5018386;28;20174;-87
2020/12/31 10:21:57;;;;;;;5.13;3.20;;;3.70;99.90;;;;;;5017969;28;20209;-88
2020/12/31 10:24:23;;;;;;;7.83;4.93;;;3.80;99.90;;;;;;5018006;28;20187;-87
2020/12/31 10:26:48;;;;;;;5.47;3.77;;;3.80;99.90;;;;;;5021174;28;20248;-88
2020/12/31 10:29:14;;;;;;;3.43;2.97;;;3.80;99.90;;;;;;5018222;28;20198;-86
2020/12/31 10:31:42;;;;;;;4.17;3.53;;;4.00;99.90;;;;;;5018193;28;20290;-89
2020/12/31 10:34:08;;;;;;;3.60;3.17;;;3.90;99.90;;;;;;5018178;28;20203;-86
2020/12/31 10:36:34;;;;;;;3.70;3.13;;;3.90;99.90;;;;;;5017906;28;20179;-88
2020/12/31 10:39:01;;;;;;;3.67;3.03;;;3.90;99.90;;;;;;5018160;28;20180;-87
2020/12/31 10:41:27;;;;;;;3.17;2.87;;;3.90;99.90;;;;;;5018093;28;20197;-87
2020/12/31 10:43:53;;;;;;;5.30;3.50;;;4.00;99.90;;;;;;5018316;28;20179;-87
2020/12/31 10:46:22;;;;;;;6.07;4.30;;;3.90;99.90;;;;;;5017441;28;20179;-88
2020/12/31 10:48:48;;;;;;;5.17;3.60;;;3.90;99.90;;;;;;5017880;28;20178;-88
2020/12/31 10:51:14;;;;;;;3.87;3.47;;;4.00;99.90;;;;;;5018010;28;20248;-87
2020/12/31 10:53:39;;;;;;;5.20;3.90;;;4.00;99.90;;;;;;5017449;28;20660;-88
2020/12/31 10:56:05;;;;;;;4.60;3.53;;;4.10;99.90;;;;;;5017788;28;20175;-89
2020/12/31 10:58:30;;;;;;;4.70;3.73;;;4.20;99.90;;;;;;5018042;28;20184;-87
2020/12/31 11:00:57;;;;;;;4.63;3.73;;;4.10;99.90;;;;;;5018217;28;20191;-88
2020/12/31 11:03:22;;;;;;;5.53;3.77;;;4.20;99.90;;;;;;5017729;28;20566;-88
2020/12/31 11:05:48;;;;;;;4.43;3.63;;;4.20;99.90;;;;;;5017737;28;20662;-88
2020/12/31 11:08:13;;;;;;;3.73;3.10;;;4.10;99.90;;;;;;5017500;28;20253;-88
2020/12/31 11:10:39;;;;;;;4.40;3.37;;;4.20;99.90;;;;;;5017786;28;20215;-87
2020/12/31 11:13:05;;;;;;;7.40;3.20;;;4.30;99.90;;;;;;5017741;28;20265;-88
2020/12/31 11:15:30;;;;;;;4.97;3.47;;;4.20;99.90;;;;;;5017595;28;20184;-88
2020/12/31 11:17:56;;;;;;;5.30;3.40;;;4.20;99.90;;;;;;5017717;28;20179;-86
2020/12/31 11:20:21;;;;;;;5.37;3.70;;;4.20;99.90;;;;;;5018106;28;20202;-88
2020/12/31 11:22:49;;;;;;;5.13;3.90;;;4.30;99.90;;;;;;5018052;28;20654;-88
2020/12/31 11:25:14;;;;;;;4.90;3.30;;;4.20;99.90;;;;;;5017729;28;20184;-85
2020/12/31 11:27:40;;;;;;;5.27;3.80;;;4.30;99.90;;;;;;5017551;28;20564;-88
2020/12/31 11:30:06;;;;;;;4.00;3.20;;;4.40;99.90;;;;;;5017572;28;20198;-88
2020/12/31 11:32:35;;;;;;;4.67;3.80;;;4.50;99.90;;;;;;5017468;28;20186;-88
2020/12/31 11:35:01;;;;;;;6.53;3.47;;;4.40;99.90;;;;;;5017796;28;20253;-88
2020/12/31 11:37:26;;;;;;;4.83;3.53;;;4.40;99.90;;;;;;5017821;28;20637;-88
2020/12/31 11:39:52;;;;;;;4.10;3.63;;;4.40;99.90;;;;;;5017687;28;20235;-88
2020/12/31 11:42:17;;;;;;;5.03;3.67;;;4.50;99.90;;;;;;5017893;28;20265;-88
2020/12/31 11:44:43;;;;;;;3.87;3.40;;;4.50;99.90;;;;;;5017982;28;20175;-88
2020/12/31 11:47:09;;;;;;;4.00;3.50;;;4.40;99.90;;;;;;5018397;28;20182;-87
2020/12/31 11:49:35;;;;;;;3.97;3.33;;;4.40;99.90;;;;;;5017987;28;20189;-88
2020/12/31 11:52:00;;;;;;;4.40;3.70;;;4.40;99.90;;;;;;5017350;28;20175;-88
2020/12/31 11:54:26;;;;;;;4.47;3.80;;;4.40;99.90;;;;;;5017112;28;20611;-88
2020/12/31 11:56:51;;;;;;;4.43;3.27;;;4.30;99.90;;;;;;5016717;28;20186;-87
2020/12/31 11:59:17;;;;;;;5.73;3.80;;;4.40;99.90;;;;;;5016906;28;20324;-88
2020/12/31 12:01:50;;;;;;;5.20;3.70;;;4.30;99.90;;;;;;5017185;28;20282;-88
2020/12/31 12:04:18;;;;;;;4.63;3.83;;;4.40;99.90;;;;;;5018026;28;20186;-88
2020/12/31 12:06:51;;;;;;;4.07;3.53;;;4.40;99.90;;;;;;5016954;28;20668;-88
2020/12/31 12:09:17;;;;;;;4.60;3.77;;;4.40;99.90;;;;;;5017105;28;20178;-88
2020/12/31 12:11:42;;;;;;;4.17;3.57;;;4.30;99.90;;;;;;5016386;28;20680;-86
2020/12/31 12:14:08;;;;;;;3.83;3.33;;;4.30;99.90;;;;;;5016147;28;20293;-87
2020/12/31 12:16:34;;;;;;;4.37;3.00;;;4.40;99.90;;;;;;5016384;28;20179;-88
2020/12/31 12:18:59;;;;;;;3.97;3.20;;;4.40;99.90;;;;;;5017081;28;20175;-88
2020/12/31 12:21:25;;;;;;;6.83;3.60;;;4.40;99.90;;;;;;5017062;28;20413;-87
2020/12/31 12:23:50;;;;;;;3.50;3.17;;;4.40;99.90;;;;;;5017215;28;20232;-87
2020/12/31 12:26:16;;;;;;;5.13;3.27;;;4.40;99.90;;;;;;5016956;28;20240;-88
2020/12/31 12:28:41;;;;;;;4.93;3.40;;;4.40;99.90;;;;;;5016305;28;20240;-88
2020/12/31 12:31:07;;;;;;;5.47;3.50;;;4.40;99.90;;;;;;5016999;28;20206;-87
2020/12/31 12:33:32;;;;;;;4.80;3.13;;;4.40;99.90;;;;;;5016729;28;20224;-88
2020/12/31 12:35:58;;;;;;;3.67;3.33;;;4.40;99.90;;;;;;5016154;28;20185;-88
2020/12/31 12:38:24;;;;;;;5.40;3.63;;;4.40;99.90;;;;;;5016068;28;20186;-87
2020/12/31 12:40:49;;;;;;;4.47;4.07;;;4.20;99.90;;;;;;5016804;28;20270;-88
2020/12/31 12:43:16;;;;;;;4.67;3.23;;;4.20;99.90;;;;;;5017651;28;20175;-88
2020/12/31 12:45:42;;;;;;;3.90;3.47;;;4.30;99.90;;;;;;5016344;28;20530;-88
2020/12/31 12:48:07;;;;;;;4.10;3.30;;;4.40;99.90;;;;;;5015858;28;20193;-88
2020/12/31 12:50:33;;;;;;;4.00;3.03;;;4.30;99.90;;;;;;5016095;28;20199;-88